Time;durP1;ratioP1;P1;durP2;ratioP2;P2;SDS_P1;SDS_P2;PMS_P1;PMS_P2;Temp;Humidity;BMP_temperature;BMP_pressure;BME280_temperature;BME280_humidity;BME280_pressure;Samples;Min_cycle;Max_cycle;Signal;HPM_P1;HPM_P2
2021/09/10 00:00:09;;;;;;;;;3.00;1.00;;;;;;;;5008156;28;45538;-78
2021/09/10 00:02:34;;;;;;;;;2.00;2.00;;;;;;;;5010318;28;46439;-78
2021/09/10 00:04:59;;;;;;;;;2.00;1.00;;;;;;;;5005993;28;45274;-79
2021/09/10 00:07:25;;;;;;;;;3.00;2.00;;;;;;;;5012514;28;45487;-78
2021/09/10 00:09:50;;;;;;;;;3.00;2.00;;;;;;;;5007525;28;45311;-79
2021/09/10 00:12:15;;;;;;;;;3.33;2.00;;;;;;;;5007825;28;46173;-78
2021/09/10 00:14:40;;;;;;;;;5.00;3.00;;;;;;;;5008913;28;45573;-79
2021/09/10 00:17:05;;;;;;;;;4.67;3.00;;;;;;;;5012560;28;45746;-78
2021/09/10 00:19:31;;;;;;;;;3.00;2.50;;;;;;;;5009191;28;46969;-78
2021/09/10 00:21:56;;;;;;;;;2.00;2.00;;;;;;;;5011008;28;46160;-79
2021/09/10 00:24:21;;;;;;;;;2.67;2.67;;;;;;;;5007914;28;45927;-78
2021/09/10 00:26:46;;;;;;;;;2.33;2.33;;;;;;;;5002662;28;45478;-78
2021/09/10 00:29:12;;;;;;;;;1.25;1.25;;;;;;;;5015087;28;45391;-78
2021/09/10 00:31:37;;;;;;;;;2.00;2.00;;;;;;;;5009469;28;45373;-79
2021/09/10 00:34:02;;;;;;;;;2.67;2.67;;;;;;;;5007419;28;45492;-79
2021/09/10 00:36:27;;;;;;;;;1.33;1.33;;;;;;;;5012921;28;45488;-78
2021/09/10 00:38:52;;;;;;;;;3.67;2.67;;;;;;;;5006367;28;45576;-79
2021/09/10 00:41:18;;;;;;;;;2.00;2.00;;;;;;;;5007932;28;45701;-79
2021/09/10 00:43:43;;;;;;;;;2.00;2.00;;;;;;;;5014016;28;45508;-79
2021/09/10 00:46:09;;;;;;;;;2.00;2.00;;;;;;;;5014203;28;45440;-79
2021/09/10 00:48:34;;;;;;;;;3.50;2.00;;;;;;;;5012684;28;45420;-79
2021/09/10 00:51:00;;;;;;;;;3.00;2.00;;;;;;;;5016252;28;45556;-78
2021/09/10 00:53:26;;;;;;;;;2.00;2.00;;;;;;;;5011316;28;45466;-79
2021/09/10 00:55:51;;;;;;;;;2.25;2.00;;;;;;;;5010756;28;45712;-78
2021/09/10 00:58:17;;;;;;;;;3.33;2.00;;;;;;;;5014487;28;45563;-80
2021/09/10 01:00:42;;;;;;;;;3.00;3.00;;;;;;;;5007970;28;47648;-79
2021/09/10 01:03:08;;;;;;;;;2.00;2.00;;;;;;;;5009129;28;45431;-79
2021/09/10 01:05:33;;;;;;;;;3.50;2.00;;;;;;;;5016846;28;45486;-79
2021/09/10 01:07:59;;;;;;;;;5.00;3.00;;;;;;;;5015685;28;45438;-78
2021/09/10 01:10:25;;;;;;;;;4.00;3.00;;;;;;;;5014157;28;45985;-78
2021/09/10 01:12:50;;;;;;;;;3.25;3.25;;;;;;;;5017551;28;45407;-78
2021/09/10 01:15:16;;;;;;;;;3.75;2.50;;;;;;;;5009840;28;45519;-78
2021/09/10 01:17:42;;;;;;;;;3.00;2.00;;;;;;;;5014423;28;45501;-79
2021/09/10 01:20:08;;;;;;;;;3.25;3.25;;;;;;;;5012320;28;45545;-79
2021/09/10 01:22:33;;;;;;;;;3.00;2.00;;;;;;;;5010030;28;45525;-78
2021/09/10 01:25:05;;;;;;;;;4.50;2.00;;;;;;;;5014031;28;45576;-78
2021/09/10 01:27:30;;;;;;;;;4.25;3.00;;;;;;;;5011443;28;45357;-78
2021/09/10 01:29:57;;;;;;;;;2.00;2.00;;;;;;;;5016595;28;47074;-78
2021/09/10 01:32:22;;;;;;;;;4.00;4.00;;;;;;;;5007013;28;45511;-78
2021/09/10 01:34:47;;;;;;;;;2.00;2.00;;;;;;;;5008168;28;45461;-78
2021/09/10 01:37:12;;;;;;;;;5.00;4.00;;;;;;;;5014107;28;45618;-78
2021/09/10 01:39:37;;;;;;;;;1.00;1.00;;;;;;;;5007794;28;45520;-78
2021/09/10 01:42:03;;;;;;;;;3.00;2.00;;;;;;;;5003458;28;45513;-78
2021/09/10 01:44:28;;;;;;;;;2.00;2.00;;;;;;;;5010139;28;45419;-78
2021/09/10 01:46:53;;;;;;;;;2.75;2.75;;;;;;;;5011206;28;45475;-78
2021/09/10 01:49:18;;;;;;;;;2.00;2.00;;;;;;;;5011212;28;45464;-79
2021/09/10 01:51:44;;;;;;;;;3.00;3.00;;;;;;;;5003958;28;45488;-79
2021/09/10 01:54:09;;;;;;;;;2.00;2.00;;;;;;;;5012009;28;45481;-78
2021/09/10 01:56:34;;;;;;;;;3.00;3.00;;;;;;;;5004919;28;45352;-78
2021/09/10 01:59:00;;;;;;;;;5.00;3.75;;;;;;;;5012567;28;46356;-78
2021/09/10 02:01:26;;;;;;;;;3.00;3.00;;;;;;;;5010731;28;45991;-79
2021/09/10 02:03:52;;;;;;;;;3.50;2.75;;;;;;;;5009810;28;45340;-78
2021/09/10 02:06:17;;;;;;;;;4.25;3.00;;;;;;;;5013987;28;45391;-78
2021/09/10 02:08:43;;;;;;;;;3.75;2.00;;;;;;;;5014269;28;46626;-78
2021/09/10 02:11:08;;;;;;;;;2.50;2.50;;;;;;;;5007603;28;45502;-78
2021/09/10 02:13:33;;;;;;;;;2.00;2.00;;;;;;;;5013696;28;45516;-79
2021/09/10 02:15:58;;;;;;;;;3.00;3.00;;;;;;;;5006411;28;45674;-79
2021/09/10 02:18:23;;;;;;;;;2.00;2.00;;;;;;;;5015136;28;46171;-78
2021/09/10 02:20:49;;;;;;;;;3.67;3.67;;;;;;;;5009462;28;45288;-79
2021/09/10 02:23:14;;;;;;;;;4.00;4.00;;;;;;;;5014792;28;45361;-78
2021/09/10 02:25:39;;;;;;;;;3.00;3.00;;;;;;;;5010051;28;51247;-78
2021/09/10 02:28:05;;;;;;;;;1.33;1.33;;;;;;;;5006387;28;45341;-78
2021/09/10 02:30:32;;;;;;;;;3.00;2.00;;;;;;;;5009802;28;45385;-78
2021/09/10 02:32:57;;;;;;;;;3.50;3.50;;;;;;;;5007388;28;45563;-78
2021/09/10 02:35:22;;;;;;;;;3.00;1.75;;;;;;;;5003613;28;45502;-78
2021/09/10 02:37:48;;;;;;;;;3.00;3.00;;;;;;;;5016364;28;45550;-78
2021/09/10 02:40:13;;;;;;;;;3.00;3.00;;;;;;;;5013285;28;45486;-78
2021/09/10 02:42:38;;;;;;;;;4.00;2.25;;;;;;;;5006962;28;45535;-78
2021/09/10 02:45:04;;;;;;;;;4.75;2.50;;;;;;;;5013212;28;45414;-78
2021/09/10 02:47:30;;;;;;;;;3.75;3.00;;;;;;;;5006273;28;46167;-78
2021/09/10 02:49:55;;;;;;;;;4.00;2.00;;;;;;;;5013911;28;45831;-78
2021/09/10 02:52:21;;;;;;;;;2.00;2.00;;;;;;;;5010844;28;45433;-78
2021/09/10 02:54:46;;;;;;;;;5.00;3.00;;;;;;;;5004836;28;45854;-78
2021/09/10 02:57:11;;;;;;;;;4.33;3.00;;;;;;;;5016356;28;45442;-78
2021/09/10 02:59:36;;;;;;;;;4.00;4.00;;;;;;;;5007895;28;45438;-78
2021/09/10 03:02:01;;;;;;;;;4.67;4.33;;;;;;;;5011041;28;45354;-78
2021/09/10 03:04:26;;;;;;;;;4.33;3.33;;;;;;;;5004466;28;45475;-79
2021/09/10 03:06:52;;;;;;;;;4.00;4.00;;;;;;;;5006628;28;46563;-78
2021/09/10 03:09:17;;;;;;;;;5.00;5.00;;;;;;;;5014568;28;45567;-78
2021/09/10 03:11:42;;;;;;;;;4.67;3.33;;;;;;;;5013399;28;45427;-78
2021/09/10 03:14:07;;;;;;;;;4.00;4.00;;;;;;;;5013692;28;45483;-78
2021/09/10 03:16:33;;;;;;;;;5.00;5.00;;;;;;;;5013099;28;45419;-78
2021/09/10 03:18:58;;;;;;;;;4.00;4.00;;;;;;;;5016195;28;45333;-78
2021/09/10 03:21:23;;;;;;;;;5.00;5.00;;;;;;;;5001540;28;45829;-78
2021/09/10 03:23:48;;;;;;;;;6.00;6.00;;;;;;;;5012768;28;45522;-78
2021/09/10 03:26:14;;;;;;;;;5.67;5.67;;;;;;;;5007867;28;46078;-78
2021/09/10 03:28:39;;;;;;;;;5.00;4.00;;;;;;;;5012243;28;45394;-78
2021/09/10 03:31:04;;;;;;;;;9.00;6.00;;;;;;;;5011450;28;45423;-78
2021/09/10 03:33:29;;;;;;;;;7.33;5.00;;;;;;;;5011610;28;45378;-78
2021/09/10 03:35:55;;;;;;;;;6.67;4.33;;;;;;;;5006368;28;47339;-78
2021/09/10 03:38:20;;;;;;;;;7.00;5.00;;;;;;;;5005901;28;45574;-78
2021/09/10 03:40:45;;;;;;;;;5.00;5.00;;;;;;;;5013446;28;45387;-79
2021/09/10 03:43:10;;;;;;;;;5.67;5.00;;;;;;;;5012075;28;45738;-78
2021/09/10 03:45:35;;;;;;;;;9.67;6.67;;;;;;;;5010177;28;46066;-78
2021/09/10 03:48:01;;;;;;;;;7.00;5.50;;;;;;;;5015860;28;45310;-78
2021/09/10 03:50:27;;;;;;;;;9.00;6.00;;;;;;;;5013172;28;45486;-79
2021/09/10 03:52:52;;;;;;;;;4.50;4.50;;;;;;;;5003964;28;45587;-78
2021/09/10 03:55:17;;;;;;;;;6.00;4.25;;;;;;;;5003638;28;45828;-78
2021/09/10 03:57:43;;;;;;;;;9.00;8.00;;;;;;;;5007427;28;45379;-78
2021/09/10 04:00:08;;;;;;;;;5.50;5.50;;;;;;;;5015653;28;45504;-79
2021/09/10 04:02:34;;;;;;;;;7.00;5.75;;;;;;;;5005788;28;45910;-78
2021/09/10 04:04:59;;;;;;;;;6.50;5.00;;;;;;;;5010083;28;45538;-78
2021/09/10 04:07:24;;;;;;;;;7.67;6.00;;;;;;;;5006299;28;45895;-79
2021/09/10 04:09:49;;;;;;;;;7.00;5.67;;;;;;;;5007315;28;45300;-78
2021/09/10 04:12:15;;;;;;;;;5.00;5.00;;;;;;;;5008136;28;45435;-78
2021/09/10 04:14:40;;;;;;;;;5.00;5.00;;;;;;;;5005770;28;48294;-78
2021/09/10 04:17:05;;;;;;;;;4.67;4.00;;;;;;;;5007215;28;45424;-78
2021/09/10 04:19:30;;;;;;;;;10.67;5.67;;;;;;;;5010334;28;45354;-78
2021/09/10 04:21:55;;;;;;;;;7.00;4.50;;;;;;;;5012576;28;45323;-78
2021/09/10 04:24:21;;;;;;;;;6.67;3.67;;;;;;;;5010988;28;45991;-78
2021/09/10 04:26:46;;;;;;;;;6.75;5.75;;;;;;;;5006952;28;45467;-78
2021/09/10 04:29:11;;;;;;;;;8.33;5.67;;;;;;;;5008772;28;45516;-79
2021/09/10 04:31:37;;;;;;;;;5.00;5.00;;;;;;;;5009748;28;45297;-78
2021/09/10 04:34:02;;;;;;;;;4.75;4.75;;;;;;;;5011528;28;47220;-78
2021/09/10 04:36:27;;;;;;;;;7.00;7.00;;;;;;;;5018826;28;45475;-78
2021/09/10 04:38:52;;;;;;;;;7.33;6.00;;;;;;;;5009751;28;45417;-78
2021/09/10 04:41:17;;;;;;;;;5.00;5.00;;;;;;;;5012109;28;45574;-78
2021/09/10 04:43:43;;;;;;;;;4.25;4.25;;;;;;;;5017335;28;46086;-78
2021/09/10 04:46:08;;;;;;;;;4.33;4.33;;;;;;;;5011227;28;45310;-77
2021/09/10 04:48:33;;;;;;;;;6.67;5.00;;;;;;;;5012944;28;45272;-78
2021/09/10 04:50:58;;;;;;;;;4.33;4.33;;;;;;;;5010293;28;45851;-79
2021/09/10 04:53:23;;;;;;;;;7.67;4.67;;;;;;;;5013797;28;46105;-78
2021/09/10 04:55:49;;;;;;;;;6.00;6.00;;;;;;;;5011935;28;45486;-78
2021/09/10 04:58:14;;;;;;;;;4.00;4.00;;;;;;;;5012740;28;45514;-78
2021/09/10 05:00:39;;;;;;;;;7.00;5.50;;;;;;;;5011294;28;45244;-78
2021/09/10 05:03:04;;;;;;;;;5.50;4.50;;;;;;;;5009144;28;45277;-78
2021/09/10 05:05:30;;;;;;;;;6.67;5.67;;;;;;;;5004544;28;45310;-78
2021/09/10 05:07:55;;;;;;;;;4.33;3.33;;;;;;;;5013116;28;45501;-78
2021/09/10 05:10:20;;;;;;;;;5.25;4.00;;;;;;;;5011263;28;45296;-79
2021/09/10 05:12:46;;;;;;;;;5.00;5.00;;;;;;;;5011219;28;48174;-79
2021/09/10 05:15:11;;;;;;;;;6.00;6.00;;;;;;;;5017448;28;45543;-78
2021/09/10 05:17:36;;;;;;;;;5.00;5.00;;;;;;;;5005478;28;45618;-78
2021/09/10 05:20:03;;;;;;;;;6.75;5.00;;;;;;;;5015321;28;45609;-79
2021/09/10 05:22:28;;;;;;;;;4.00;3.75;;;;;;;;5013888;28;45691;-79
2021/09/10 05:24:53;;;;;;;;;4.00;4.00;;;;;;;;5008204;28;45738;-79
2021/09/10 05:27:19;;;;;;;;;7.67;5.33;;;;;;;;5014806;28;45465;-78
2021/09/10 05:29:44;;;;;;;;;4.00;4.00;;;;;;;;5012366;28;45431;-78
2021/09/10 05:32:09;;;;;;;;;6.00;4.33;;;;;;;;5014905;28;45833;-78
2021/09/10 05:34:34;;;;;;;;;7.33;5.33;;;;;;;;5014673;28;45394;-81
2021/09/10 05:36:59;;;;;;;;;4.25;4.25;;;;;;;;5010037;28;45527;-76
2021/09/10 05:39:25;;;;;;;;;8.00;6.00;;;;;;;;5015083;28;45414;-76
2021/09/10 05:41:50;;;;;;;;;7.67;5.33;;;;;;;;5010137;28;45265;-76
2021/09/10 05:44:15;;;;;;;;;7.33;6.00;;;;;;;;5014253;28;45478;-80
2021/09/10 05:46:40;;;;;;;;;5.50;5.50;;;;;;;;5014909;28;46191;-80
2021/09/10 05:49:06;;;;;;;;;5.00;5.00;;;;;;;;5014403;28;45662;-82
2021/09/10 05:51:31;;;;;;;;;5.75;5.75;;;;;;;;5012272;28;45580;-82
2021/09/10 05:53:56;;;;;;;;;7.00;6.00;;;;;;;;5014330;28;45481;-84
2021/09/10 05:56:22;;;;;;;;;5.75;5.75;;;;;;;;5015003;28;45460;-58
2021/09/10 05:58:47;;;;;;;;;7.00;7.00;;;;;;;;5004635;28;45648;-58
2021/09/10 06:01:13;;;;;;;;;8.50;5.50;;;;;;;;5012304;28;45465;-58
2021/09/10 06:03:38;;;;;;;;;8.00;6.50;;;;;;;;5015611;28;45449;-61
2021/09/10 06:06:03;;;;;;;;;7.75;5.25;;;;;;;;5009049;28;45394;-59
2021/09/10 06:08:29;;;;;;;;;6.75;5.25;;;;;;;;5014385;28;45438;-59
2021/09/10 06:10:54;;;;;;;;;9.75;6.00;;;;;;;;5009651;28;46529;-59
2021/09/10 06:13:19;;;;;;;;;7.00;5.00;;;;;;;;5007104;28;45751;-60
2021/09/10 06:15:45;;;;;;;;;6.00;6.00;;;;;;;;5007247;28;45741;-60
2021/09/10 06:18:10;;;;;;;;;6.75;3.75;;;;;;;;5004777;28;45429;-60
2021/09/10 06:20:35;;;;;;;;;7.75;7.50;;;;;;;;5008377;28;45690;-60
2021/09/10 06:23:01;;;;;;;;;7.00;4.50;;;;;;;;5003637;28;45496;-61
2021/09/10 06:25:27;;;;;;;;;6.00;6.00;;;;;;;;5009261;28;45547;-58
2021/09/10 06:27:52;;;;;;;;;6.50;5.75;;;;;;;;5002941;28;46003;-61
2021/09/10 06:30:18;;;;;;;;;7.50;6.00;;;;;;;;5010113;28;45550;-61
2021/09/10 06:32:43;;;;;;;;;5.50;5.00;;;;;;;;5004968;28;45432;-60
2021/09/10 06:35:09;;;;;;;;;8.50;7.00;;;;;;;;5009402;28;45406;-64
2021/09/10 06:37:34;;;;;;;;;5.50;4.00;;;;;;;;5013983;28;45462;-59
2021/09/10 06:39:59;;;;;;;;;7.00;4.75;;;;;;;;5014214;28;45528;-58
2021/09/10 06:42:25;;;;;;;;;5.00;5.00;;;;;;;;5013525;28;45390;-58
2021/09/10 06:44:52;;;;;;;;;7.50;5.75;;;;;;;;5008337;28;45506;-58
2021/09/10 06:47:18;;;;;;;;;3.50;3.25;;;;;;;;5008236;28;45462;-61
2021/09/10 06:49:44;;;;;;;;;7.75;5.50;;;;;;;;5015075;28;45738;-60
2021/09/10 06:52:10;;;;;;;;;8.00;6.25;;;;;;;;5012467;28;45299;-59
2021/09/10 06:54:35;;;;;;;;;5.00;5.00;;;;;;;;5017828;28;45387;-59
2021/09/10 06:57:01;;;;;;;;;6.25;5.25;;;;;;;;5011609;28;45800;-59
2021/09/10 06:59:26;;;;;;;;;8.00;7.00;;;;;;;;5015730;28;46219;-62
2021/09/10 07:01:51;;;;;;;;;6.00;6.00;;;;;;;;5015621;28;45406;-61
2021/09/10 07:04:17;;;;;;;;;9.00;7.00;;;;;;;;5003162;28;45589;-60
2021/09/10 07:06:42;;;;;;;;;8.25;6.50;;;;;;;;5004124;28;45466;-60
2021/09/10 07:09:08;;;;;;;;;6.25;5.00;;;;;;;;5005141;28;45401;-59
2021/09/10 07:11:33;;;;;;;;;7.75;7.00;;;;;;;;5011778;28;45433;-58
2021/09/10 07:14:02;;;;;;;;;7.25;7.25;;;;;;;;5003559;28;45317;-58
2021/09/10 07:16:28;;;;;;;;;6.75;6.75;;;;;;;;5007796;28;45536;-59
2021/09/10 07:18:53;;;;;;;;;10.25;6.00;;;;;;;;5010802;28;46354;-59
2021/09/10 07:21:18;;;;;;;;;8.50;7.75;;;;;;;;5012229;28;45408;-59
2021/09/10 07:23:44;;;;;;;;;8.25;7.75;;;;;;;;4997173;28;45542;-60
2021/09/10 07:26:09;;;;;;;;;7.00;5.00;;;;;;;;5011548;28;45732;-59
2021/09/10 07:28:34;;;;;;;;;8.00;7.00;;;;;;;;5009936;28;46154;-61
2021/09/10 07:31:00;;;;;;;;;6.50;6.50;;;;;;;;4999600;28;45382;-59
2021/09/10 07:33:26;;;;;;;;;7.25;7.00;;;;;;;;5012381;28;45512;-57
2021/09/10 07:35:51;;;;;;;;;9.75;7.25;;;;;;;;5001549;28;45507;-59
2021/09/10 07:38:16;;;;;;;;;10.25;6.00;;;;;;;;5005637;28;45838;-60
2021/09/10 07:40:42;;;;;;;;;7.00;7.00;;;;;;;;5008666;28;45454;-61
2021/09/10 07:43:07;;;;;;;;;7.00;7.00;;;;;;;;4998711;28;45680;-60
2021/09/10 07:45:32;;;;;;;;;5.75;5.75;;;;;;;;5010129;28;45621;-60
2021/09/10 07:47:58;;;;;;;;;6.25;6.25;;;;;;;;5011654;28;47648;-61
2021/09/10 07:50:23;;;;;;;;;5.00;5.00;;;;;;;;5008393;28;45496;-60
2021/09/10 07:52:48;;;;;;;;;6.00;5.25;;;;;;;;4992738;28;45612;-60
2021/09/10 07:55:14;;;;;;;;;8.00;7.00;;;;;;;;5008931;28;46908;-60
2021/09/10 07:57:39;;;;;;;;;8.50;5.00;;;;;;;;5010712;28;45464;-60
2021/09/10 08:00:04;;;;;;;;;8.00;6.50;;;;;;;;5009000;28;45545;-60
2021/09/10 08:02:30;;;;;;;;;7.00;7.00;;;;;;;;5010542;28;45435;-63
2021/09/10 08:04:55;;;;;;;;;8.25;6.00;;;;;;;;5017947;28;45778;-60
2021/09/10 08:07:21;;;;;;;;;8.00;5.25;;;;;;;;5009938;28;45436;-60
2021/09/10 08:09:46;;;;;;;;;8.75;6.25;;;;;;;;5011527;28;45400;-60
2021/09/10 08:12:12;;;;;;;;;5.25;4.00;;;;;;;;5006786;28;45829;-61
2021/09/10 08:14:37;;;;;;;;;6.50;6.00;;;;;;;;5006938;28;45788;-60
2021/09/10 08:17:02;;;;;;;;;3.00;3.00;;;;;;;;5008075;28;46072;-60
2021/09/10 08:19:28;;;;;;;;;6.50;5.75;;;;;;;;5004824;28;45461;-60
2021/09/10 08:21:54;;;;;;;;;7.00;4.75;;;;;;;;5013006;28;45391;-60
2021/09/10 08:24:19;;;;;;;;;4.50;4.50;;;;;;;;5012906;28;45289;-60
2021/09/10 08:26:44;;;;;;;;;4.00;4.00;;;;;;;;5008795;28;46486;-60
2021/09/10 08:29:09;;;;;;;;;5.67;4.33;;;;;;;;5008187;28;45307;-60
2021/09/10 08:31:35;;;;;;;;;4.33;4.33;;;;;;;;5008272;28;45322;-60
2021/09/10 08:34:02;;;;;;;;;5.00;5.00;;;;;;;;5009655;28;45621;-59
2021/09/10 08:36:27;;;;;;;;;6.00;6.00;;;;;;;;5008302;28;46232;-77
2021/09/10 08:38:52;;;;;;;;;5.75;5.75;;;;;;;;5003138;28;45517;-76
2021/09/10 08:41:21;;;;;;;;;6.00;6.00;;;;;;;;5004997;28;45514;-77
2021/09/10 08:43:47;;;;;;;;;6.00;5.00;;;;;;;;5007846;28;45405;-76
2021/09/10 08:46:12;;;;;;;;;4.00;4.00;;;;;;;;5010382;28;52245;-77
2021/09/10 08:48:37;;;;;;;;;8.00;5.00;;;;;;;;5011808;28;45586;-77
2021/09/10 08:51:03;;;;;;;;;3.33;2.67;;;;;;;;5004854;28;45804;-88
2021/09/10 08:53:28;;;;;;;;;7.50;5.25;;;;;;;;5004985;28;45485;-77
2021/09/10 08:55:53;;;;;;;;;5.00;5.00;;;;;;;;5004189;28;46125;-76
2021/09/10 08:58:18;;;;;;;;;5.00;5.00;;;;;;;;5006503;28;45430;-76
2021/09/10 09:00:44;;;;;;;;;4.00;4.00;;;;;;;;5011416;28;45422;-77
2021/09/10 09:03:11;;;;;;;;;3.25;3.25;;;;;;;;5010171;28;45366;-78
2021/09/10 09:05:36;;;;;;;;;5.00;5.00;;;;;;;;5009602;28;47155;-80
2021/09/10 09:08:05;;;;;;;;;5.25;3.50;;;;;;;;5009731;28;46051;-84
2021/09/10 09:10:48;;;;;;;;;6.00;5.00;;;;;;;;5010326;28;45435;-88
2021/09/10 09:13:13;;;;;;;;;6.00;4.00;;;;;;;;5011840;28;45434;-89
2021/09/10 09:15:38;;;;;;;;;5.33;5.33;;;;;;;;5007072;28;46269;-88
2021/09/10 09:18:04;;;;;;;;;4.67;4.00;;;;;;;;5006951;28;45513;-88
2021/09/10 09:20:29;;;;;;;;;6.00;3.00;;;;;;;;5009289;28;45398;-88
2021/09/10 09:23:06;;;;;;;;;7.33;3.33;;;;;;;;5017761;28;45461;-89
2021/09/10 09:25:33;;;;;;;;;3.75;3.75;;;;;;;;5008006;28;45474;-91
2021/09/10 09:28:18;;;;;;;;;2.50;2.50;;;;;;;;5005926;28;45706;-88
2021/09/10 09:30:43;;;;;;;;;6.00;4.25;;;;;;;;5012754;28;45458;-89
2021/09/10 09:33:10;;;;;;;;;6.00;4.00;;;;;;;;5011632;28;45701;-89
2021/09/10 09:35:36;;;;;;;;;3.75;3.75;;;;;;;;5000218;28;45387;-90
2021/09/10 09:38:09;;;;;;;;;4.67;3.33;;;;;;;;5011788;28;45512;-90
2021/09/10 09:40:35;;;;;;;;;3.50;3.50;;;;;;;;5008208;28;45462;-88
2021/09/10 09:43:11;;;;;;;;;3.00;3.00;;;;;;;;5014449;28;45276;-90
2021/09/10 09:45:36;;;;;;;;;2.00;2.00;;;;;;;;5011807;28;46297;-90
2021/09/10 09:48:07;;;;;;;;;4.00;4.00;;;;;;;;5006980;28;45620;-89
2021/09/10 09:50:32;;;;;;;;;3.75;3.00;;;;;;;;5010153;28;45425;-89
2021/09/10 09:52:57;;;;;;;;;1.75;1.75;;;;;;;;5014210;28;45497;-90
2021/09/10 09:55:24;;;;;;;;;4.67;3.33;;;;;;;;5011807;28;46394;-90
2021/09/10 09:57:50;;;;;;;;;5.00;3.75;;;;;;;;5009410;28;45938;-89
2021/09/10 10:00:15;;;;;;;;;6.25;3.50;;;;;;;;5014032;28;45635;-88
2021/09/10 10:02:40;;;;;;;;;4.00;2.75;;;;;;;;5006330;28;45447;-89
2021/09/10 10:05:07;;;;;;;;;3.00;3.00;;;;;;;;5005376;28;45502;-90
2021/09/10 10:07:42;;;;;;;;;3.00;3.00;;;;;;;;5009533;28;45574;-89
2021/09/10 10:10:10;;;;;;;;;2.00;2.00;;;;;;;;5011028;28;45524;-89
2021/09/10 10:12:35;;;;;;;;;2.25;2.25;;;;;;;;5016120;28;45434;-89
2021/09/10 10:15:19;;;;;;;;;2.00;2.00;;;;;;;;5012725;28;46075;-89
2021/09/10 10:17:45;;;;;;;;;2.75;2.00;;;;;;;;5006293;28;45496;-64
2021/09/10 10:20:14;;;;;;;;;2.00;2.00;;;;;;;;5010433;28;45568;-68
2021/09/10 10:22:42;;;;;;;;;3.00;1.50;;;;;;;;5011671;28;45654;-68
2021/09/10 10:25:09;;;;;;;;;3.00;3.00;;;;;;;;5010617;28;46141;-68
2021/09/10 10:27:41;;;;;;;;;3.00;3.00;;;;;;;;5014415;28;45759;-68
2021/09/10 10:30:29;;;;;;;;;2.00;1.00;;;;;;;;5009629;28;45404;-66
2021/09/10 10:32:54;;;;;;;;;5.00;3.25;;;;;;;;5014503;28;45727;-68
2021/09/10 10:35:30;;;;;;;;;2.33;1.33;;;;;;;;5012048;28;45995;-68
2021/09/10 10:38:01;;;;;;;;;4.00;2.00;;;;;;;;5004311;28;45956;-68
2021/09/10 10:40:26;;;;;;;;;2.00;2.00;;;;;;;;5000451;28;45411;-68
2021/09/10 10:42:52;;;;;;;;;4.33;3.00;;;;;;;;5012314;28;45335;-68
2021/09/10 10:45:37;;;;;;;;;1.25;1.25;;;;;;;;5008942;28;46121;-68
2021/09/10 10:48:02;;;;;;;;;5.25;2.50;;;;;;;;5005563;28;45576;-68
2021/09/10 10:50:32;;;;;;;;;2.00;2.00;;;;;;;;5006173;28;45539;-68
2021/09/10 10:52:57;;;;;;;;;4.25;2.75;;;;;;;;5011156;28;45600;-68
2021/09/10 10:55:24;;;;;;;;;3.00;3.00;;;;;;;;5005060;28;48396;-69
2021/09/10 10:57:50;;;;;;;;;2.00;2.00;;;;;;;;5015609;28;45429;-68
2021/09/10 11:00:27;;;;;;;;;5.50;3.25;;;;;;;;5012054;28;45412;-68
2021/09/10 11:03:12;;;;;;;;;3.25;2.00;;;;;;;;5010191;28;45458;-68
2021/09/10 11:05:37;;;;;;;;;3.50;3.00;;;;;;;;5007862;28;47150;-68
2021/09/10 11:08:03;;;;;;;;;3.33;3.00;;;;;;;;5010287;28;45354;-68
2021/09/10 11:10:28;;;;;;;;;3.00;3.00;;;;;;;;5009027;28;45573;-68
2021/09/10 11:12:54;;;;;;;;;3.00;3.00;;;;;;;;5012766;28;45486;-68
2021/09/10 11:15:19;;;;;;;;;2.75;2.75;;;;;;;;5002681;28;46333;-69
2021/09/10 11:17:50;;;;;;;;;3.50;3.00;;;;;;;;5005853;28;45513;-68
2021/09/10 11:20:23;;;;;;;;;3.00;3.00;;;;;;;;5010703;28;45320;-68
2021/09/10 11:22:48;;;;;;;;;3.00;3.00;;;;;;;;5000118;28;46505;-68
2021/09/10 11:25:14;;;;;;;;;4.00;3.00;;;;;;;;5004507;28;45525;-68
2021/09/10 11:27:39;;;;;;;;;5.75;4.00;;;;;;;;5002718;28;45485;-67
2021/09/10 11:30:09;;;;;;;;;4.00;4.00;;;;;;;;5005938;28;45675;-68
2021/09/10 11:32:34;;;;;;;;;4.50;4.00;;;;;;;;5008399;28;45606;-68
2021/09/10 11:34:59;;;;;;;;;4.00;4.00;;;;;;;;5008296;28;45462;-68
2021/09/10 11:37:25;;;;;;;;;3.50;2.50;;;;;;;;5004463;28;45516;-68
2021/09/10 11:39:50;;;;;;;;;2.75;2.75;;;;;;;;5008984;28;45520;-68
2021/09/10 11:42:35;;;;;;;;;2.67;2.67;;;;;;;;5006299;28;45502;-68
2021/09/10 11:45:02;;;;;;;;;2.00;2.00;;;;;;;;5007277;28;46390;-68
2021/09/10 11:47:27;;;;;;;;;3.25;2.50;;;;;;;;5005091;28;45439;-67
2021/09/10 11:49:59;;;;;;;;;2.00;2.00;;;;;;;;5008723;28;45473;-68
2021/09/10 11:52:34;;;;;;;;;2.50;2.00;;;;;;;;5007022;28;53464;-67
2021/09/10 11:55:06;;;;;;;;;3.75;2.75;;;;;;;;5010025;28;46210;-68
2021/09/10 11:57:32;;;;;;;;;4.00;4.00;;;;;;;;5008481;28;45597;-67
2021/09/10 11:59:58;;;;;;;;;3.00;2.50;;;;;;;;5007315;28;45502;-68
2021/09/10 12:02:23;;;;;;;;;3.50;3.00;;;;;;;;5010882;28;45637;-67
2021/09/10 12:04:54;;;;;;;;;3.50;3.00;;;;;;;;5000725;28;46144;-68
2021/09/10 12:07:25;;;;;;;;;4.00;3.00;;;;;;;;5012149;28;45556;-68
2021/09/10 12:09:51;;;;;;;;;5.00;2.75;;;;;;;;5009546;28;45494;-67
2021/09/10 12:12:17;;;;;;;;;4.75;4.00;;;;;;;;5010310;28;45399;-67
2021/09/10 12:14:52;;;;;;;;;2.75;2.75;;;;;;;;5008288;28;46974;-67
2021/09/10 12:17:17;;;;;;;;;3.50;2.75;;;;;;;;5014570;28;45780;-68
2021/09/10 12:19:47;;;;;;;;;2.67;2.33;;;;;;;;5011057;28;45413;-68
2021/09/10 12:22:24;;;;;;;;;6.00;2.50;;;;;;;;5015049;28;45677;-68
2021/09/10 12:25:09;;;;;;;;;9.75;3.50;;;;;;;;5008641;28;46096;-68
2021/09/10 12:27:34;;;;;;;;;1.00;1.00;;;;;;;;5007536;28;45559;-68
2021/09/10 12:30:18;;;;;;;;;3.00;2.00;;;;;;;;5012133;28;45881;-68
2021/09/10 12:32:44;;;;;;;;;2.25;2.25;;;;;;;;5009615;28;45481;-69
2021/09/10 12:35:09;;;;;;;;;1.25;1.25;;;;;;;;5012009;28;46296;-69
2021/09/10 12:37:35;;;;;;;;;1.25;1.25;;;;;;;;5006083;28;45797;-68
2021/09/10 12:40:01;;;;;;;;;3.75;2.00;;;;;;;;5014579;28;45403;-68
2021/09/10 12:42:26;;;;;;;;;3.25;1.50;;;;;;;;5011839;28;45514;-68
2021/09/10 12:44:51;;;;;;;;;0.00;0.00;;;;;;;;5012246;28;46651;-70
2021/09/10 12:47:16;;;;;;;;;2.00;2.00;;;;;;;;5016866;28;45506;-65
2021/09/10 12:49:42;;;;;;;;;2.25;2.25;;;;;;;;5015086;28;45533;-68
2021/09/10 12:52:08;;;;;;;;;2.50;1.00;;;;;;;;5010775;28;45506;-68
2021/09/10 12:54:33;;;;;;;;;1.25;1.25;;;;;;;;5010156;28;45549;-69
2021/09/10 12:56:59;;;;;;;;;4.00;2.25;;;;;;;;5009752;28;46599;-67
2021/09/10 12:59:24;;;;;;;;;4.50;2.50;;;;;;;;5016654;28;45657;-68
2021/09/10 13:01:49;;;;;;;;;1.00;1.00;;;;;;;;5012945;28;45476;-68
2021/09/10 13:04:15;;;;;;;;;2.50;2.00;;;;;;;;5015341;28;45328;-72
2021/09/10 13:06:41;;;;;;;;;3.00;3.00;;;;;;;;5026047;28;45617;-68
2021/09/10 13:09:06;;;;;;;;;3.50;2.00;;;;;;;;5005479;28;45694;-68
2021/09/10 13:11:31;;;;;;;;;2.75;2.75;;;;;;;;5011216;28;45467;-67
2021/09/10 13:13:58;;;;;;;;;2.67;2.67;;;;;;;;5015075;28;46322;-66
2021/09/10 13:16:24;;;;;;;;;4.25;2.00;;;;;;;;5017064;28;45742;-67
2021/09/10 13:18:49;;;;;;;;;3.25;3.25;;;;;;;;5015226;28;45471;-66
2021/09/10 13:21:14;;;;;;;;;1.67;1.67;;;;;;;;5008605;28;45821;-67
2021/09/10 13:23:39;;;;;;;;;2.33;2.33;;;;;;;;5012805;28;47286;-66
2021/09/10 13:26:04;;;;;;;;;1.00;1.00;;;;;;;;5011202;28;45856;-67
2021/09/10 13:28:30;;;;;;;;;2.67;2.67;;;;;;;;5005701;28;45358;-65
2021/09/10 13:30:55;;;;;;;;;3.75;2.50;;;;;;;;5013326;28;45358;-66
2021/09/10 13:33:20;;;;;;;;;4.33;2.67;;;;;;;;5013133;28;45814;-63
2021/09/10 13:35:45;;;;;;;;;2.67;2.67;;;;;;;;5010480;28;45484;-66
2021/09/10 13:38:10;;;;;;;;;3.00;3.00;;;;;;;;5008114;28;45400;-66
2021/09/10 13:40:36;;;;;;;;;3.67;3.67;;;;;;;;5011407;28;45782;-66
2021/09/10 13:43:01;;;;;;;;;4.00;4.00;;;;;;;;4998308;28;46109;-66
2021/09/10 13:45:26;;;;;;;;;4.00;3.00;;;;;;;;5012767;28;45544;-66
2021/09/10 13:47:51;;;;;;;;;4.33;2.67;;;;;;;;5011363;28;45513;-66
2021/09/10 13:50:18;;;;;;;;;3.00;3.00;;;;;;;;5010170;28;45474;-65
2021/09/10 13:52:43;;;;;;;;;1.75;1.75;;;;;;;;5011495;28;47352;-66
2021/09/10 13:55:08;;;;;;;;;4.00;2.25;;;;;;;;5010844;28;45376;-66
2021/09/10 13:57:34;;;;;;;;;2.00;2.00;;;;;;;;5012646;28;45544;-65
2021/09/10 13:59:59;;;;;;;;;2.00;2.00;;;;;;;;5008183;28;45327;-66
2021/09/10 14:02:25;;;;;;;;;3.00;2.75;;;;;;;;5009904;28;46229;-65
2021/09/10 14:04:50;;;;;;;;;1.67;1.33;;;;;;;;5009419;28;45280;-66
2021/09/10 14:07:15;;;;;;;;;6.75;2.00;;;;;;;;5011605;28;45593;-66
2021/09/10 14:09:41;;;;;;;;;2.67;2.67;;;;;;;;5006350;28;46869;-85
2021/09/10 14:12:06;;;;;;;;;3.00;3.00;;;;;;;;5011179;28;45968;-85
2021/09/10 14:14:31;;;;;;;;;2.00;2.00;;;;;;;;5009445;28;45434;-85
2021/09/10 14:16:56;;;;;;;;;2.25;1.75;;;;;;;;5012085;28;45383;-84
2021/09/10 14:19:22;;;;;;;;;3.67;2.00;;;;;;;;5010652;28;45463;-83
2021/09/10 14:21:48;;;;;;;;;4.00;2.33;;;;;;;;5006029;28;46083;-85
2021/09/10 14:24:13;;;;;;;;;1.25;1.25;;;;;;;;5013215;28;45367;-84
2021/09/10 14:26:38;;;;;;;;;2.67;1.67;;;;;;;;5009991;28;45568;-84
2021/09/10 14:29:04;;;;;;;;;1.00;1.00;;;;;;;;5000932;28;45448;-85
2021/09/10 14:31:29;;;;;;;;;2.00;2.00;;;;;;;;5009969;28;45674;-85
2021/09/10 14:33:54;;;;;;;;;1.67;1.67;;;;;;;;5012989;28;45464;-84
2021/09/10 14:36:20;;;;;;;;;2.00;2.00;;;;;;;;5011632;28;45371;-84